sensor_id;sensor_type;location;lat;lon;timestamp;temperature;humidity
13354;DHT22;6746;50.892;4.064;2023-04-01T00:00:08;9.80;99.90
13354;DHT22;6746;50.892;4.064;2023-04-01T00:02:46;9.90;99.90
13354;DHT22;6746;50.892;4.064;2023-04-01T00:05:27;9.90;99.90
13354;DHT22;6746;50.892;4.064;2023-04-01T00:08:05;9.80;99.90
13354;DHT22;6746;50.892;4.064;2023-04-01T00:10:46;9.90;99.90
13354;DHT22;6746;50.892;4.064;2023-04-01T00:13:25;9.90;99.90
13354;DHT22;6746;50.892;4.064;2023-04-01T00:16:05;9.90;99.90
13354;DHT22;6746;50.892;4.064;2023-04-01T00:18:44;9.90;99.90
13354;DHT22;6746;50.892;4.064;2023-04-01T00:21:22;9.90;99.90
13354;DHT22;6746;50.892;4.064;2023-04-01T00:24:00;9.90;99.90
13354;DHT22;6746;50.892;4.064;2023-04-01T00:26:48;9.90;99.90
13354;DHT22;6746;50.892;4.064;2023-04-01T00:29:26;9.90;99.90
13354;DHT22;6746;50.892;4.064;2023-04-01T00:32:05;9.90;99.90
13354;DHT22;6746;50.892;4.064;2023-04-01T00:34:43;9.90;99.90
13354;DHT22;6746;50.892;4.064;2023-04-01T00:37:21;9.90;99.90
13354;DHT22;6746;50.892;4.064;2023-04-01T00:40:20;9.90;99.90
13354;DHT22;6746;50.892;4.064;2023-04-01T00:42:57;9.90;99.90
13354;DHT22;6746;50.892;4.064;2023-04-01T00:45:37;9.80;99.90
13354;DHT22;6746;50.892;4.064;2023-04-01T00:48:18;9.80;99.90
13354;DHT22;6746;50.892;4.064;2023-04-01T00:50:57;9.80;99.90
13354;DHT22;6746;50.892;4.064;2023-04-01T00:53:44;9.80;99.90
13354;DHT22;6746;50.892;4.064;2023-04-01T00:56:34;9.80;99.90
13354;DHT22;6746;50.892;4.064;2023-04-01T00:59:13;9.80;99.90
13354;DHT22;6746;50.892;4.064;2023-04-01T01:01:49;9.80;99.90
13354;DHT22;6746;50.892;4.064;2023-04-01T01:04:31;9.80;99.90
13354;DHT22;6746;50.892;4.064;2023-04-01T01:07:24;9.80;99.90
13354;DHT22;6746;50.892;4.064;2023-04-01T01:16:10;9.80;99.90
13354;DHT22;6746;50.892;4.064;2023-04-01T01:27:18;9.70;99.90
13354;DHT22;6746;50.892;4.064;2023-04-01T01:30:01;9.70;99.90
13354;DHT22;6746;50.892;4.064;2023-04-01T01:32:44;9.70;99.90
13354;DHT22;6746;50.892;4.064;2023-04-01T01:36:06;9.80;99.90
13354;DHT22;6746;50.892;4.064;2023-04-01T01:38:32;9.70;99.90
13354;DHT22;6746;50.892;4.064;2023-04-01T01:41:15;9.80;99.90
13354;DHT22;6746;50.892;4.064;2023-04-01T01:43:53;9.70;99.90
13354;DHT22;6746;50.892;4.064;2023-04-01T01:46:31;9.70;99.90
13354;DHT22;6746;50.892;4.064;2023-04-01T01:49:10;9.70;99.90
13354;DHT22;6746;50.892;4.064;2023-04-01T01:51:48;9.70;99.90
13354;DHT22;6746;50.892;4.064;2023-04-01T01:54:26;9.60;99.90
13354;DHT22;6746;50.892;4.064;2023-04-01T01:57:09;9.60;99.90
13354;DHT22;6746;50.892;4.064;2023-04-01T01:59:47;9.60;99.90
13354;DHT22;6746;50.892;4.064;2023-04-01T02:02:28;9.50;99.90
13354;DHT22;6746;50.892;4.064;2023-04-01T02:05:07;9.60;99.90
13354;DHT22;6746;50.892;4.064;2023-04-01T02:07:46;9.50;99.90
13354;DHT22;6746;50.892;4.064;2023-04-01T02:10:24;9.50;99.90
13354;DHT22;6746;50.892;4.064;2023-04-01T02:13:01;9.60;99.90
13354;DHT22;6746;50.892;4.064;2023-04-01T02:15:41;9.50;99.90
13354;DHT22;6746;50.892;4.064;2023-04-01T02:18:27;9.50;99.90
13354;DHT22;6746;50.892;4.064;2023-04-01T02:21:05;9.50;99.90
13354;DHT22;6746;50.892;4.064;2023-04-01T02:23:44;9.50;99.90
13354;DHT22;6746;50.892;4.064;2023-04-01T02:26:24;9.50;99.90
13354;DHT22;6746;50.892;4.064;2023-04-01T02:29:03;9.50;99.90
13354;DHT22;6746;50.892;4.064;2023-04-01T02:31:50;9.50;99.90
13354;DHT22;6746;50.892;4.064;2023-04-01T02:34:29;9.50;99.90
13354;DHT22;6746;50.892;4.064;2023-04-01T02:37:07;9.50;99.90
13354;DHT22;6746;50.892;4.064;2023-04-01T02:39:58;9.50;99.90
13354;DHT22;6746;50.892;4.064;2023-04-01T02:42:33;9.50;99.90
13354;DHT22;6746;50.892;4.064;2023-04-01T02:45:12;9.50;99.90
13354;DHT22;6746;50.892;4.064;2023-04-01T02:47:53;9.50;99.90
13354;DHT22;6746;50.892;4.064;2023-04-01T02:50:31;9.50;99.90
13354;DHT22;6746;50.892;4.064;2023-04-01T02:53:09;9.60;99.90
13354;DHT22;6746;50.892;4.064;2023-04-01T02:55:47;9.60;99.90
13354;DHT22;6746;50.892;4.064;2023-04-01T02:58:30;9.60;99.90
13354;DHT22;6746;50.892;4.064;2023-04-01T03:01:08;9.60;99.90
13354;DHT22;6746;50.892;4.064;2023-04-01T03:03:46;9.60;99.90
13354;DHT22;6746;50.892;4.064;2023-04-01T03:06:24;9.50;99.90
13354;DHT22;6746;50.892;4.064;2023-04-01T03:09:05;9.50;99.90
13354;DHT22;6746;50.892;4.064;2023-04-01T03:11:43;9.50;99.90
13354;DHT22;6746;50.892;4.064;2023-04-01T03:14:22;9.50;99.90
13354;DHT22;6746;50.892;4.064;2023-04-01T03:17:00;9.50;99.90
13354;DHT22;6746;50.892;4.064;2023-04-01T03:19:43;9.50;99.90
13354;DHT22;6746;50.892;4.064;2023-04-01T03:22:21;9.50;99.90
13354;DHT22;6746;50.892;4.064;2023-04-01T03:24:59;9.50;99.90
13354;DHT22;6746;50.892;4.064;2023-04-01T03:27:38;9.50;99.90
13354;DHT22;6746;50.892;4.064;2023-04-01T03:30:17;9.50;99.90
13354;DHT22;6746;50.892;4.064;2023-04-01T03:32:55;9.50;99.90
13354;DHT22;6746;50.892;4.064;2023-04-01T03:35:36;9.50;99.90
13354;DHT22;6746;50.892;4.064;2023-04-01T03:38:14;9.50;99.90
13354;DHT22;6746;50.892;4.064;2023-04-01T03:40:55;9.50;99.90
13354;DHT22;6746;50.892;4.064;2023-04-01T03:43:33;9.50;99.90
13354;DHT22;6746;50.892;4.064;2023-04-01T03:46:16;9.50;99.90
13354;DHT22;6746;50.892;4.064;2023-04-01T03:48:49;9.50;99.90
13354;DHT22;6746;50.892;4.064;2023-04-01T03:51:36;9.50;99.90
13354;DHT22;6746;50.892;4.064;2023-04-01T03:54:14;9.50;99.90
13354;DHT22;6746;50.892;4.064;2023-04-01T03:56:52;9.50;99.90
13354;DHT22;6746;50.892;4.064;2023-04-01T03:59:30;9.50;99.90
13354;DHT22;6746;50.892;4.064;2023-04-01T04:02:09;9.50;99.90
13354;DHT22;6746;50.892;4.064;2023-04-01T04:04:47;9.50;99.90
13354;DHT22;6746;50.892;4.064;2023-04-01T04:07:30;9.50;99.90
13354;DHT22;6746;50.892;4.064;2023-04-01T04:10:08;9.50;99.90
13354;DHT22;6746;50.892;4.064;2023-04-01T04:12:56;9.50;99.90
13354;DHT22;6746;50.892;4.064;2023-04-01T04:15:41;9.50;99.90
13354;DHT22;6746;50.892;4.064;2023-04-01T04:18:20;9.50;99.90
13354;DHT22;6746;50.892;4.064;2023-04-01T04:21:01;9.50;99.90
13354;DHT22;6746;50.892;4.064;2023-04-01T04:23:39;9.50;99.90
13354;DHT22;6746;50.892;4.064;2023-04-01T04:26:20;9.50;99.90
13354;DHT22;6746;50.892;4.064;2023-04-01T04:28:58;9.50;99.90
13354;DHT22;6746;50.892;4.064;2023-04-01T04:31:39;9.50;99.90
13354;DHT22;6746;50.892;4.064;2023-04-01T04:34:17;9.50;99.90
13354;DHT22;6746;50.892;4.064;2023-04-01T04:36:56;9.50;99.90
13354;DHT22;6746;50.892;4.064;2023-04-01T04:39:34;9.50;99.90
13354;DHT22;6746;50.892;4.064;2023-04-01T04:42:22;9.50;99.90
13354;DHT22;6746;50.892;4.064;2023-04-01T04:45:06;9.50;99.90
13354;DHT22;6746;50.892;4.064;2023-04-01T04:47:44;9.50;99.90
13354;DHT22;6746;50.892;4.064;2023-04-01T04:50:32;9.40;99.90
13354;DHT22;6746;50.892;4.064;2023-04-01T04:53:13;9.40;99.90
13354;DHT22;6746;50.892;4.064;2023-04-01T04:55:51;9.40;99.90
13354;DHT22;6746;50.892;4.064;2023-04-01T04:58:32;9.40;99.90
13354;DHT22;6746;50.892;4.064;2023-04-01T05:01:11;9.40;99.90
13354;DHT22;6746;50.892;4.064;2023-04-01T05:03:53;9.40;99.90
13354;DHT22;6746;50.892;4.064;2023-04-01T05:06:31;9.40;99.90
13354;DHT22;6746;50.892;4.064;2023-04-01T05:09:17;9.40;99.90
13354;DHT22;6746;50.892;4.064;2023-04-01T05:11:56;9.40;99.90
13354;DHT22;6746;50.892;4.064;2023-04-01T05:14:36;9.40;99.90
13354;DHT22;6746;50.892;4.064;2023-04-01T05:17:15;9.40;99.90
13354;DHT22;6746;50.892;4.064;2023-04-01T05:19:53;9.30;99.90
13354;DHT22;6746;50.892;4.064;2023-04-01T05:22:31;9.40;99.90
13354;DHT22;6746;50.892;4.064;2023-04-01T05:25:12;9.30;99.90
13354;DHT22;6746;50.892;4.064;2023-04-01T05:27:50;9.40;99.90
13354;DHT22;6746;50.892;4.064;2023-04-01T05:30:28;9.30;99.90
13354;DHT22;6746;50.892;4.064;2023-04-01T05:33:06;9.30;99.90
13354;DHT22;6746;50.892;4.064;2023-04-01T05:35:54;9.30;99.90
13354;DHT22;6746;50.892;4.064;2023-04-01T05:38:33;9.30;99.90
13354;DHT22;6746;50.892;4.064;2023-04-01T05:41:11;9.30;99.90
13354;DHT22;6746;50.892;4.064;2023-04-01T05:43:47;9.30;99.90
13354;DHT22;6746;50.892;4.064;2023-04-01T05:46:23;9.40;99.90
13354;DHT22;6746;50.892;4.064;2023-04-01T05:49:01;9.30;99.90
13354;DHT22;6746;50.892;4.064;2023-04-01T05:51:38;9.30;99.90
13354;DHT22;6746;50.892;4.064;2023-04-01T05:54:09;9.30;99.90
13354;DHT22;6746;50.892;4.064;2023-04-01T05:56:47;9.30;99.90
13354;DHT22;6746;50.892;4.064;2023-04-01T05:59:25;9.30;99.90
13354;DHT22;6746;50.892;4.064;2023-04-01T06:01:56;9.30;99.90
13354;DHT22;6746;50.892;4.064;2023-04-01T06:04:26;9.30;99.90
13354;DHT22;6746;50.892;4.064;2023-04-01T06:07:05;9.30;99.90
13354;DHT22;6746;50.892;4.064;2023-04-01T06:09:30;9.30;99.90
13354;DHT22;6746;50.892;4.064;2023-04-01T06:15:30;9.30;99.90
13354;DHT22;6746;50.892;4.064;2023-04-01T06:18:42;9.30;99.90
13354;DHT22;6746;50.892;4.064;2023-04-01T06:21:28;9.30;99.90
13354;DHT22;6746;50.892;4.064;2023-04-01T06:24:31;9.30;99.90
13354;DHT22;6746;50.892;4.064;2023-04-01T06:30:47;9.30;99.90
13354;DHT22;6746;50.892;4.064;2023-04-01T06:40:03;9.40;99.90
13354;DHT22;6746;50.892;4.064;2023-04-01T06:43:05;9.40;99.90
13354;DHT22;6746;50.892;4.064;2023-04-01T06:45:59;9.40;99.90
13354;DHT22;6746;50.892;4.064;2023-04-01T06:48:38;9.40;99.90
13354;DHT22;6746;50.892;4.064;2023-04-01T06:54:31;9.40;99.90
13354;DHT22;6746;50.892;4.064;2023-04-01T06:57:47;9.40;99.90
13354;DHT22;6746;50.892;4.064;2023-04-01T06:59:34;9.40;99.90
13354;DHT22;6746;50.892;4.064;2023-04-01T07:02:12;9.40;99.90
13354;DHT22;6746;50.892;4.064;2023-04-01T07:04:48;9.30;99.90
13354;DHT22;6746;50.892;4.064;2023-04-01T07:07:35;9.40;99.90
13354;DHT22;6746;50.892;4.064;2023-04-01T07:10:10;9.50;99.90
13354;DHT22;6746;50.892;4.064;2023-04-01T07:12:50;9.60;99.90
13354;DHT22;6746;50.892;4.064;2023-04-01T07:15:20;9.60;99.90
13354;DHT22;6746;50.892;4.064;2023-04-01T07:17:49;9.60;99.90
13354;DHT22;6746;50.892;4.064;2023-04-01T07:20:35;9.60;99.90
13354;DHT22;6746;50.892;4.064;2023-04-01T07:23:03;9.60;99.90
13354;DHT22;6746;50.892;4.064;2023-04-01T07:25:43;9.60;99.90
13354;DHT22;6746;50.892;4.064;2023-04-01T07:28:14;9.60;99.90
13354;DHT22;6746;50.892;4.064;2023-04-01T07:37:03;9.60;99.90
13354;DHT22;6746;50.892;4.064;2023-04-01T07:43:05;9.60;99.90
13354;DHT22;6746;50.892;4.064;2023-04-01T07:51:59;9.60;99.90
13354;DHT22;6746;50.892;4.064;2023-04-01T07:54:33;9.70;99.90
13354;DHT22;6746;50.892;4.064;2023-04-01T07:57:27;9.70;99.90
13354;DHT22;6746;50.892;4.064;2023-04-01T08:02:51;9.70;99.90
13354;DHT22;6746;50.892;4.064;2023-04-01T08:08:26;9.80;99.90
13354;DHT22;6746;50.892;4.064;2023-04-01T08:10:58;9.80;99.90
13354;DHT22;6746;50.892;4.064;2023-04-01T08:13:50;9.70;99.90
13354;DHT22;6746;50.892;4.064;2023-04-01T08:16:35;9.70;99.90
13354;DHT22;6746;50.892;4.064;2023-04-01T08:19:46;9.70;99.90
13354;DHT22;6746;50.892;4.064;2023-04-01T08:25:31;9.70;99.90
13354;DHT22;6746;50.892;4.064;2023-04-01T08:28:03;9.70;99.90
13354;DHT22;6746;50.892;4.064;2023-04-01T08:30:46;9.60;99.90
13354;DHT22;6746;50.892;4.064;2023-04-01T08:33:28;9.60;99.90
13354;DHT22;6746;50.892;4.064;2023-04-01T08:36:12;9.70;99.90
13354;DHT22;6746;50.892;4.064;2023-04-01T08:44:13;9.80;99.90
13354;DHT22;6746;50.892;4.064;2023-04-01T08:46:49;9.80;99.90
13354;DHT22;6746;50.892;4.064;2023-04-01T08:49:23;9.80;99.90
13354;DHT22;6746;50.892;4.064;2023-04-01T08:54:43;9.90;99.90
13354;DHT22;6746;50.892;4.064;2023-04-01T08:57:24;9.90;99.90
13354;DHT22;6746;50.892;4.064;2023-04-01T09:03:10;10.00;99.90
13354;DHT22;6746;50.892;4.064;2023-04-01T09:09:19;10.00;99.90
13354;DHT22;6746;50.892;4.064;2023-04-01T09:11:06;10.00;99.90
13354;DHT22;6746;50.892;4.064;2023-04-01T09:33:00;10.30;99.90
13354;DHT22;6746;50.892;4.064;2023-04-01T09:35:46;10.10;99.90
13354;DHT22;6746;50.892;4.064;2023-04-01T09:47:07;10.40;99.90
13354;DHT22;6746;50.892;4.064;2023-04-01T09:52:37;10.60;99.90
13354;DHT22;6746;50.892;4.064;2023-04-01T10:08:05;10.70;99.90
13354;DHT22;6746;50.892;4.064;2023-04-01T10:11:04;10.60;99.90
13354;DHT22;6746;50.892;4.064;2023-04-01T10:28:17;10.60;99.90
13354;DHT22;6746;50.892;4.064;2023-04-01T10:31:18;10.70;99.90
13354;DHT22;6746;50.892;4.064;2023-04-01T10:43:17;10.70;99.90
13354;DHT22;6746;50.892;4.064;2023-04-01T10:54:46;10.70;99.90
13354;DHT22;6746;50.892;4.064;2023-04-01T11:07:10;10.90;99.90
13354;DHT22;6746;50.892;4.064;2023-04-01T11:13:13;11.10;99.90
13354;DHT22;6746;50.892;4.064;2023-04-01T11:18:54;11.20;99.90
13354;DHT22;6746;50.892;4.064;2023-04-01T11:38:57;11.30;99.90
13354;DHT22;6746;50.892;4.064;2023-04-01T11:41:37;11.40;99.90
13354;DHT22;6746;50.892;4.064;2023-04-01T11:55:44;11.10;99.90
13354;DHT22;6746;50.892;4.064;2023-04-01T12:01:44;10.90;99.90
13354;DHT22;6746;50.892;4.064;2023-04-01T12:13:12;10.90;99.90
13354;DHT22;6746;50.892;4.064;2023-04-01T12:24:42;11.00;99.90
13354;DHT22;6746;50.892;4.064;2023-04-01T12:30:26;11.00;99.90
13354;DHT22;6746;50.892;4.064;2023-04-01T12:36:07;11.00;99.90
13354;DHT22;6746;50.892;4.064;2023-04-01T12:41:32;11.00;99.90
13354;DHT22;6746;50.892;4.064;2023-04-01T12:47:26;10.90;99.90
13354;DHT22;6746;50.892;4.064;2023-04-01T12:50:22;11.00;99.90
13354;DHT22;6746;50.892;4.064;2023-04-01T12:52:58;11.10;99.90
13354;DHT22;6746;50.892;4.064;2023-04-01T12:55:45;11.10;99.90
13354;DHT22;6746;50.892;4.064;2023-04-01T12:58:27;11.20;99.90
13354;DHT22;6746;50.892;4.064;2023-04-01T13:09:38;10.90;99.90
13354;DHT22;6746;50.892;4.064;2023-04-01T13:12:17;10.90;99.90
13354;DHT22;6746;50.892;4.064;2023-04-01T13:25:54;10.40;99.90
13354;DHT22;6746;50.892;4.064;2023-04-01T13:28:38;10.40;99.90
13354;DHT22;6746;50.892;4.064;2023-04-01T13:42:59;10.40;99.90
13354;DHT22;6746;50.892;4.064;2023-04-01T13:49:08;10.40;99.90
13354;DHT22;6746;50.892;4.064;2023-04-01T13:52:49;10.50;99.90
13354;DHT22;6746;50.892;4.064;2023-04-01T13:54:51;10.60;99.90
13354;DHT22;6746;50.892;4.064;2023-04-01T14:03:15;10.60;99.90
13354;DHT22;6746;50.892;4.064;2023-04-01T14:09:59;10.40;99.90
13354;DHT22;6746;50.892;4.064;2023-04-01T14:12:18;10.30;99.90
13354;DHT22;6746;50.892;4.064;2023-04-01T14:15:11;10.30;99.90
13354;DHT22;6746;50.892;4.064;2023-04-01T14:20:37;10.30;99.90
13354;DHT22;6746;50.892;4.064;2023-04-01T14:23:25;10.20;99.90
13354;DHT22;6746;50.892;4.064;2023-04-01T14:26:16;10.20;99.90
13354;DHT22;6746;50.892;4.064;2023-04-01T14:29:18;10.30;99.90
13354;DHT22;6746;50.892;4.064;2023-04-01T14:32:02;10.20;99.90
13354;DHT22;6746;50.892;4.064;2023-04-01T14:34:53;10.30;99.90
13354;DHT22;6746;50.892;4.064;2023-04-01T14:40:54;10.30;99.90
13354;DHT22;6746;50.892;4.064;2023-04-01T14:52:22;10.30;99.90
13354;DHT22;6746;50.892;4.064;2023-04-01T14:54:46;10.30;99.90
13354;DHT22;6746;50.892;4.064;2023-04-01T14:57:25;10.40;99.90
13354;DHT22;6746;50.892;4.064;2023-04-01T15:00:12;10.50;99.90
13354;DHT22;6746;50.892;4.064;2023-04-01T15:03:04;10.50;99.90
13354;DHT22;6746;50.892;4.064;2023-04-01T15:05:46;10.50;99.90
13354;DHT22;6746;50.892;4.064;2023-04-01T15:08:35;10.50;99.90
13354;DHT22;6746;50.892;4.064;2023-04-01T15:17:27;10.30;99.90
13354;DHT22;6746;50.892;4.064;2023-04-01T15:20:13;10.20;99.90
13354;DHT22;6746;50.892;4.064;2023-04-01T15:23:16;10.30;99.90
13354;DHT22;6746;50.892;4.064;2023-04-01T15:26:11;10.40;99.90
13354;DHT22;6746;50.892;4.064;2023-04-01T15:32:00;10.30;99.90
13354;DHT22;6746;50.892;4.064;2023-04-01T15:35:34;10.20;99.90
13354;DHT22;6746;50.892;4.064;2023-04-01T15:37:48;10.20;99.90
13354;DHT22;6746;50.892;4.064;2023-04-01T15:40:31;10.10;99.90
13354;DHT22;6746;50.892;4.064;2023-04-01T15:43:24;10.00;99.90
13354;DHT22;6746;50.892;4.064;2023-04-01T15:49:51;9.90;99.90
13354;DHT22;6746;50.892;4.064;2023-04-01T15:54:53;10.00;99.90
13354;DHT22;6746;50.892;4.064;2023-04-01T15:58:47;10.00;99.90
13354;DHT22;6746;50.892;4.064;2023-04-01T16:00:49;9.90;99.90
13354;DHT22;6746;50.892;4.064;2023-04-01T16:06:22;9.90;99.90
13354;DHT22;6746;50.892;4.064;2023-04-01T16:09:35;9.90;99.90
13354;DHT22;6746;50.892;4.064;2023-04-01T16:20:20;9.90;99.90
13354;DHT22;6746;50.892;4.064;2023-04-01T16:22:50;9.80;99.90
13354;DHT22;6746;50.892;4.064;2023-04-01T16:25:40;9.90;99.90
13354;DHT22;6746;50.892;4.064;2023-04-01T16:31:16;9.90;99.90
13354;DHT22;6746;50.892;4.064;2023-04-01T16:33:49;9.80;99.90
13354;DHT22;6746;50.892;4.064;2023-04-01T16:36:24;9.90;99.90
13354;DHT22;6746;50.892;4.064;2023-04-01T16:45:37;10.00;99.90
13354;DHT22;6746;50.892;4.064;2023-04-01T16:48:12;9.90;99.90
13354;DHT22;6746;50.892;4.064;2023-04-01T16:56:24;9.90;99.90
13354;DHT22;6746;50.892;4.064;2023-04-01T16:59:38;9.80;99.90
13354;DHT22;6746;50.892;4.064;2023-04-01T17:01:41;9.80;99.90
13354;DHT22;6746;50.892;4.064;2023-04-01T17:13:40;9.70;99.90
13354;DHT22;6746;50.892;4.064;2023-04-01T17:16:23;9.70;99.90
13354;DHT22;6746;50.892;4.064;2023-04-01T17:18:59;9.60;99.90
13354;DHT22;6746;50.892;4.064;2023-04-01T17:36:20;9.60;99.90
13354;DHT22;6746;50.892;4.064;2023-04-01T17:39:34;9.60;99.90
13354;DHT22;6746;50.892;4.064;2023-04-01T17:45:09;9.50;99.90
13354;DHT22;6746;50.892;4.064;2023-04-01T17:48:35;9.50;99.90
13354;DHT22;6746;50.892;4.064;2023-04-01T17:51:35;9.50;99.90
13354;DHT22;6746;50.892;4.064;2023-04-01T17:57:09;9.40;99.90
13354;DHT22;6746;50.892;4.064;2023-04-01T17:59:51;9.40;99.90
13354;DHT22;6746;50.892;4.064;2023-04-01T18:02:39;9.40;99.90
13354;DHT22;6746;50.892;4.064;2023-04-01T18:07:36;9.30;99.90
13354;DHT22;6746;50.892;4.064;2023-04-01T18:10:17;9.30;99.90
13354;DHT22;6746;50.892;4.064;2023-04-01T18:19:06;9.20;99.90
13354;DHT22;6746;50.892;4.064;2023-04-01T18:21:45;9.10;99.90
13354;DHT22;6746;50.892;4.064;2023-04-01T18:24:41;9.10;99.90
13354;DHT22;6746;50.892;4.064;2023-04-01T18:27:33;9.10;99.90
13354;DHT22;6746;50.892;4.064;2023-04-01T18:30:13;9.00;99.90
13354;DHT22;6746;50.892;4.064;2023-04-01T18:33:09;9.00;99.90
13354;DHT22;6746;50.892;4.064;2023-04-01T18:42:38;9.00;99.90
13354;DHT22;6746;50.892;4.064;2023-04-01T18:45:36;9.00;99.90
13354;DHT22;6746;50.892;4.064;2023-04-01T18:48:43;9.00;99.90
13354;DHT22;6746;50.892;4.064;2023-04-01T18:51:44;9.00;99.90
13354;DHT22;6746;50.892;4.064;2023-04-01T18:54:45;9.00;99.90
13354;DHT22;6746;50.892;4.064;2023-04-01T18:57:27;9.00;99.90
13354;DHT22;6746;50.892;4.064;2023-04-01T19:00:08;9.00;99.90
13354;DHT22;6746;50.892;4.064;2023-04-01T19:02:45;9.00;99.90
13354;DHT22;6746;50.892;4.064;2023-04-01T19:05:31;8.90;99.90
13354;DHT22;6746;50.892;4.064;2023-04-01T19:17:10;8.90;99.90
13354;DHT22;6746;50.892;4.064;2023-04-01T19:20:00;8.80;99.90
13354;DHT22;6746;50.892;4.064;2023-04-01T19:25:48;8.80;99.90
13354;DHT22;6746;50.892;4.064;2023-04-01T19:28:39;8.90;99.90
13354;DHT22;6746;50.892;4.064;2023-04-01T19:32:08;8.80;99.90
13354;DHT22;6746;50.892;4.064;2023-04-01T19:50:49;8.80;99.90
13354;DHT22;6746;50.892;4.064;2023-04-01T19:53:37;8.80;99.90
13354;DHT22;6746;50.892;4.064;2023-04-01T19:57:15;8.80;99.90
13354;DHT22;6746;50.892;4.064;2023-04-01T19:59:30;8.80;99.90
13354;DHT22;6746;50.892;4.064;2023-04-01T20:05:33;8.80;99.90
13354;DHT22;6746;50.892;4.064;2023-04-01T20:08:31;8.80;99.90
13354;DHT22;6746;50.892;4.064;2023-04-01T20:11:18;8.80;99.90
13354;DHT22;6746;50.892;4.064;2023-04-01T20:14:23;8.80;99.90
13354;DHT22;6746;50.892;4.064;2023-04-01T20:17:18;8.80;99.90
13354;DHT22;6746;50.892;4.064;2023-04-01T20:23:06;8.80;99.90
13354;DHT22;6746;50.892;4.064;2023-04-01T20:25:54;8.80;99.90
13354;DHT22;6746;50.892;4.064;2023-04-01T20:28:37;8.80;99.90
13354;DHT22;6746;50.892;4.064;2023-04-01T20:31:28;8.80;99.90
13354;DHT22;6746;50.892;4.064;2023-04-01T20:37:49;8.80;99.90
13354;DHT22;6746;50.892;4.064;2023-04-01T20:40:33;8.80;99.90
13354;DHT22;6746;50.892;4.064;2023-04-01T20:46:07;8.80;99.90
13354;DHT22;6746;50.892;4.064;2023-04-01T20:49:10;8.80;99.90
13354;DHT22;6746;50.892;4.064;2023-04-01T20:51:52;8.80;99.90
13354;DHT22;6746;50.892;4.064;2023-04-01T20:57:57;8.90;99.90
13354;DHT22;6746;50.892;4.064;2023-04-01T21:06:14;8.90;99.90
13354;DHT22;6746;50.892;4.064;2023-04-01T21:09:20;8.80;99.90
13354;DHT22;6746;50.892;4.064;2023-04-01T21:12:19;8.90;99.90
13354;DHT22;6746;50.892;4.064;2023-04-01T21:18:18;8.90;99.90
13354;DHT22;6746;50.892;4.064;2023-04-01T21:26:52;8.90;99.90
13354;DHT22;6746;50.892;4.064;2023-04-01T21:35:51;8.90;99.90
13354;DHT22;6746;50.892;4.064;2023-04-01T21:57:03;8.90;99.90
13354;DHT22;6746;50.892;4.064;2023-04-01T22:00:08;8.90;99.90
13354;DHT22;6746;50.892;4.064;2023-04-01T22:03:07;9.00;99.90
13354;DHT22;6746;50.892;4.064;2023-04-01T22:09:13;9.00;99.90
13354;DHT22;6746;50.892;4.064;2023-04-01T22:12:09;9.00;99.90
13354;DHT22;6746;50.892;4.064;2023-04-01T22:15:20;9.00;99.90
13354;DHT22;6746;50.892;4.064;2023-04-01T22:18:15;9.00;99.90
13354;DHT22;6746;50.892;4.064;2023-04-01T22:24:18;9.00;99.90
13354;DHT22;6746;50.892;4.064;2023-04-01T22:27:06;9.10;99.90
13354;DHT22;6746;50.892;4.064;2023-04-01T22:32:44;9.10;99.90
13354;DHT22;6746;50.892;4.064;2023-04-01T22:39:00;9.10;99.90
13354;DHT22;6746;50.892;4.064;2023-04-01T22:41:48;9.10;99.90
13354;DHT22;6746;50.892;4.064;2023-04-01T22:44:36;9.10;99.90
13354;DHT22;6746;50.892;4.064;2023-04-01T22:50:25;9.10;99.90
13354;DHT22;6746;50.892;4.064;2023-04-01T22:56:35;9.00;99.90
13354;DHT22;6746;50.892;4.064;2023-04-01T23:02:41;9.10;99.90
13354;DHT22;6746;50.892;4.064;2023-04-01T23:05:21;9.00;99.90
13354;DHT22;6746;50.892;4.064;2023-04-01T23:08:19;9.00;99.90
13354;DHT22;6746;50.892;4.064;2023-04-01T23:10:52;9.00;99.90
13354;DHT22;6746;50.892;4.064;2023-04-01T23:13:31;9.00;99.90
13354;DHT22;6746;50.892;4.064;2023-04-01T23:16:08;9.00;99.90
13354;DHT22;6746;50.892;4.064;2023-04-01T23:21:42;9.00;99.90
13354;DHT22;6746;50.892;4.064;2023-04-01T23:25:17;9.10;99.90
13354;DHT22;6746;50.892;4.064;2023-04-01T23:27:50;9.10;99.90
13354;DHT22;6746;50.892;4.064;2023-04-01T23:36:13;9.10;99.90
13354;DHT22;6746;50.892;4.064;2023-04-01T23:39:02;9.10;99.90
13354;DHT22;6746;50.892;4.064;2023-04-01T23:41:38;9.10;99.90
13354;DHT22;6746;50.892;4.064;2023-04-01T23:44:21;9.10;99.90
13354;DHT22;6746;50.892;4.064;2023-04-01T23:46:59;9.00;99.90
13354;DHT22;6746;50.892;4.064;2023-04-01T23:49:51;9.10;99.90
13354;DHT22;6746;50.892;4.064;2023-04-01T23:52:25;9.00;99.90
13354;DHT22;6746;50.892;4.064;2023-04-01T23:58:14;9.00;99.90
